Latest Weather Observations for Wadeye (Port Keats)

IDD60801

Issued at 6:31 pm CST Saturday 23 July 2016 (issued every 30 minutes, with the page automatically refreshed every 10 minutes)

About weather observations | Map of weather stations | Latest weather observations for NT | Other Formats
Station Details ID: 014948 Name: PORT KEATS AIRPORT Lat: -14.25 Lon: 129.53 Height: 28.0 m
Data from the previous 72 hours. | See also: Recent months at Wadeye (Port Keats)
Date/Time
CST
Temp
°C
App
Temp
°C
Dew
Point
°C
Rel
Hum
%
Delta-T
°C
Wind Press
QNH
hPa
Press
MSL
hPa
Rain since
9am
mm
Dir  Spd
km/h
Gust
km/h
Spd
kts
Gust
kts
23/06:30pm 28.1 28.3 14.7 44 8.1 WNW 7 11 4 6 - - 0.0
23/06:00pm 29.7 29.9 14.7 40 9.1 WNW 7 11 4 6 - - 0.0
23/05:30pm 30.1 29.4 14.2 38 9.6 WNW 11 15 6 8 - - 0.0
23/05:00pm 30.4 29.6 14.1 37 9.9 WNW 11 17 6 9 - - 0.0
23/04:30pm 30.7 30.0 15.5 39 9.4 NW 13 20 7 11 - - 0.0
23/04:00pm 30.7 30.6 17.0 43 8.7 W 13 19 7 10 - - 0.0
23/03:30pm 31.2 29.8 14.4 36 10.2 WNW 15 19 8 10 - - 0.0
23/03:00pm 31.2 30.0 13.9 35 10.5 WNW 13 20 7 11 - - 0.0
23/02:30pm 31.8 30.5 15.7 37 10.0 N 17 22 9 12 - - 0.0
23/02:00pm 31.9 29.9 15.4 37 10.2 N 20 26 11 14 - - 0.0
23/01:30pm 32.1 30.6 16.4 39 9.9 NNE 19 22 10 12 - - 0.0
23/01:00pm 31.6 31.1 18.6 46 8.4 N 19 24 10 13 - - 0.0
23/12:30pm 32.9 33.7 16.3 37 10.5 NNE 7 17 4 9 - - 0.0
23/12:00pm 32.5 32.3 14.6 34 11.0 ENE 9 15 5 8 - - 0.0
23/11:30am 31.6 32.1 15.5 37 10.0 NE 7 13 4 7 - - 0.0
23/11:00am 30.3 30.7 16.3 42 8.7 ENE 9 17 5 9 - - 0.0
23/10:30am 29.6 30.3 17.1 47 7.9 ENE 9 15 5 8 - - 0.0
23/10:00am 28.3 28.4 16.6 49 7.3 ESE 11 17 6 9 - - 0.0
23/09:30am 26.9 28.5 17.9 57 5.7 SE 6 9 3 5 - - 0.0
23/09:00am 24.8 26.7 18.5 68 4.0 E 6 9 3 5 - - 0.0
23/08:30am 23.1 25.5 17.1 69 3.7 CALM 0 0 0 0 - - 0.0
23/08:27am 23.0 25.6 17.5 71 3.4 CALM 0 0 0 0 - - 0.0
23/08:00am 18.0 18.6 15.3 84 1.6 S 6 7 3 4 - - 0.0
23/07:30am 17.0 17.2 14.1 83 1.7 SSE 6 7 3 4 - - 0.0
23/07:00am 17.0 18.3 14.1 83 1.7 CALM 0 0 0 0 - - 0.0
23/06:30am 17.3 18.7 14.4 83 1.7 CALM 0 0 0 0 - - 0.0
23/06:00am 17.6 17.8 14.3 81 1.9 SE 6 6 3 3 - - 0.0
23/05:30am 18.2 18.3 14.5 79 2.1 SSE 7 9 4 5 - - 0.0
23/05:00am 18.0 19.4 14.3 79 2.1 CALM 0 0 0 0 - - 0.0
23/04:30am 18.5 20.0 14.6 78 2.3 CALM 0 0 0 0 - - 0.0
23/04:00am 20.0 20.8 15.8 77 2.5 NNE 6 9 3 5 - - 0.0
23/03:30am 19.5 20.9 14.5 73 2.9 CALM 0 4 0 2 - - 0.0
23/03:00am 19.9 20.2 15.1 74 2.8 NE 7 17 4 9 - - 0.0
23/02:30am 19.5 19.3 14.7 74 2.8 S 9 11 5 6 - - 0.0
23/02:00am 19.0 20.5 14.7 76 2.5 CALM 0 2 0 1 - - 0.0
23/01:30am 19.2 20.6 14.5 74 2.7 CALM 0 0 0 0 - - 0.0
23/01:00am 19.7 21.3 14.9 74 2.8 CALM 0 0 0 0 - - 0.0
23/12:30am 19.6 20.4 14.8 74 2.8 S 4 9 2 5 - - 0.0
23/12:00am 19.7 20.4 14.5 72 3.0 SSW 4 9 2 5 - - 0.0
 
Date/Time
CST
Temp
°C
App
Temp
°C
Dew
Point
°C
Rel
Hum
%
Delta-T
°C
Wind Press
QNH
hPa
Press
MSL
hPa
Rain since
9am
mm
Dir  Spd
km/h
Gust
km/h
Spd
kts
Gust
kts
22/11:30pm 20.0 20.2 14.8 72 3.0 SSW 7 7 4 4 - - 0.0
22/11:00pm 20.2 21.7 14.6 70 3.3 CALM 0 0 0 0 - - 0.0
22/10:30pm 21.2 22.7 14.6 66 3.9 CALM 0 2 0 1 - - 0.0
22/10:00pm 21.5 22.9 14.4 64 4.2 CALM 0 0 0 0 - - 0.0
22/09:30pm 22.1 23.2 14.5 62 4.5 SW 2 7 1 4 - - 0.0
22/09:00pm 22.8 24.2 14.4 59 4.9 CALM 0 0 0 0 - - 0.0
22/08:30pm 24.9 26.5 15.0 54 5.9 CALM 0 0 0 0 - - 0.0
22/08:00pm 24.9 26.3 14.4 52 6.2 CALM 0 2 0 1 - - 0.0
22/07:30pm 26.2 27.2 14.3 48 7.1 SW 2 7 1 4 - - 0.0
22/07:00pm 27.5 27.6 13.8 43 8.1 SW 6 7 3 4 - - 0.0
22/06:30pm 29.4 30.6 15.9 44 8.4 WSW 4 7 2 4 - - 0.0
22/06:00pm 30.7 32.1 17.4 45 8.5 WNW 6 9 3 5 - - 0.0
22/05:30pm 30.9 32.0 17.2 43 8.7 WNW 7 11 4 6 - - 0.0
22/05:00pm 31.5 31.4 15.9 39 9.7 WNW 11 17 6 9 - - 0.0
22/04:30pm 31.7 31.0 14.4 35 10.6 NW 11 17 6 9 - - 0.0
22/04:00pm 32.5 30.8 13.7 32 11.4 NW 15 22 8 12 - - 0.0
22/03:30pm 32.7 31.5 12.9 30 11.9 NW 11 22 6 12 - - 0.0
22/03:00pm 33.9 32.0 11.7 26 13.1 ESE 13 24 7 13 - - 0.0
22/02:30pm 33.6 30.5 11.5 26 13.0 E 19 30 10 16 - - 0.0
22/02:00pm 33.7 31.7 11.5 26 13.1 SE 13 20 7 11 - - 0.0
22/01:30pm 33.8 32.2 12.7 27 12.7 S 13 24 7 13 - - 0.0
22/01:00pm 32.4 31.3 12.1 29 12.0 SE 9 17 5 9 - - 0.0
22/12:30pm 31.9 29.7 12.2 30 11.6 ESE 15 26 8 14 - - 0.0
22/12:00pm 31.9 29.9 12.7 31 11.4 ESE 15 22 8 12 - - 0.0
22/11:30am 31.3 29.3 12.6 31 11.1 ESE 15 20 8 11 - - 0.0
22/11:00am 30.8 29.0 12.2 32 10.9 E 13 20 7 11 - - 0.0
22/10:30am 29.3 27.5 10.9 32 10.5 SE 11 15 6 8 - - 0.0
22/10:00am 28.1 26.3 10.8 34 9.8 SE 11 17 6 9 - - 0.0
22/09:30am 26.9 25.8 11.8 39 8.7 ESE 9 15 5 8 - - 0.0
22/09:00am 25.9 24.5 13.4 46 7.3 SE 13 20 7 11 - - 0.0
22/08:30am 21.1 22.9 15.6 71 3.3 CALM 0 0 0 0 - - 0.0
22/08:00am 17.8 19.3 14.7 82 1.8 CALM 0 2 0 1 - - 0.0
22/07:30am 16.1 15.9 13.6 85 1.4 S 7 11 4 6 - - 0.0
22/07:00am 17.0 17.0 14.1 83 1.7 S 7 11 4 6 - - 0.0
22/06:30am 16.7 16.9 14.2 85 1.4 S 6 7 3 4 - - 0.0
22/06:00am 17.0 18.1 14.5 85 1.4 S 2 7 1 4 - - 0.0
22/05:30am 17.1 17.1 15.1 88 1.2 SSW 9 13 5 7 - - 0.0
22/05:00am 16.7 17.2 14.9 89 1.0 SSW 6 9 3 5 - - 0.0
22/04:30am 16.9 17.5 15.4 91 0.9 S 6 7 3 4 - - 0.0
22/04:00am 16.7 18.4 15.2 91 0.9 CALM 0 0 0 0 - - 0.0
22/03:30am 16.6 17.1 15.0 90 0.9 SSW 6 9 3 5 - - 0.0
22/03:00am 16.7 16.7 15.1 90 0.9 SSW 9 11 5 6 - - 0.0
22/02:30am 16.8 18.1 14.1 84 1.5 CALM 0 6 0 3 - - 0.0
22/02:00am 17.8 19.7 15.8 88 1.2 CALM 0 0 0 0 - - 0.0
22/01:30am 17.9 19.1 15.9 88 1.2 S 4 7 2 4 - - 0.0
22/01:00am 17.4 17.9 15.6 89 1.1 SSW 7 9 4 5 - - 0.0
22/12:30am 16.8 17.1 14.6 87 1.3 S 6 9 3 5 - - 0.0
22/12:00am 17.2 18.6 14.5 84 1.6 CALM 0 0 0 0 - - 0.0
 
Date/Time
CST
Temp
°C
App
Temp
°C
Dew
Point
°C
Rel
Hum
%
Delta-T
°C
Wind Press
QNH
hPa
Press
MSL
hPa
Rain since
9am
mm
Dir  Spd
km/h
Gust
km/h
Spd
kts
Gust
kts
21/11:30pm 17.4 18.8 14.3 82 1.8 CALM 0 0 0 0 - - 0.0
21/11:00pm 18.3 19.8 14.6 79 2.1 CALM 0 0 0 0 - - 0.0
21/10:30pm 18.3 19.9 15.0 81 1.9 CALM 0 0 0 0 - - 0.0
21/10:00pm 19.1 20.7 15.0 77 2.4 CALM 0 6 0 3 - - 0.0
21/09:30pm 20.1 21.8 15.3 74 2.8 CALM 0 0 0 0 - - 0.0
21/09:00pm 20.2 20.8 15.4 74 2.8 SSW 6 9 3 5 - - 0.0
21/08:30pm 21.1 22.7 15.0 68 3.6 CALM 0 6 0 3 - - 0.0
21/08:00pm 22.1 23.6 14.7 63 4.4 CALM 0 0 0 0 - - 0.0
21/07:30pm 23.6 25.0 14.3 56 5.5 CALM 0 0 0 0 - - 0.0
21/07:00pm 24.7 24.7 13.6 50 6.5 SW 6 9 3 5 - - 0.0
21/06:30pm 26.7 26.3 13.1 43 8.0 WSW 7 11 4 6 - - 0.0
21/06:00pm 28.3 26.8 11.8 36 9.5 W 11 15 6 8 - - 0.0
21/05:30pm 29.7 28.1 11.7 33 10.5 W 11 17 6 9 - - 0.0
21/05:00pm 29.8 27.9 11.8 33 10.5 W 13 19 7 10 - - 0.0
21/04:30pm 30.5 28.6 11.9 31 10.9 W 13 20 7 11 - - 0.0
21/04:00pm 30.9 28.3 10.8 29 11.6 W 15 20 8 11 - - 0.0
21/03:30pm 31.2 29.1 11.1 29 11.6 WSW 13 20 7 11 - - 0.0
21/03:00pm 31.3 30.2 15.3 38 9.9 WSW 15 24 8 13 - - 0.0
21/02:30pm 32.8 30.9 7.6 21 13.9 NNE 7 13 4 7 - - 0.0
21/02:00pm 32.8 29.8 7.6 21 13.9 SE 13 22 7 12 - - 0.0
21/01:30pm 32.5 29.8 7.4 21 13.8 E 11 19 6 10 - - 0.0
21/01:00pm 31.4 28.3 7.1 22 13.2 E 13 20 7 11 - - 0.0
21/12:30pm 31.8 28.1 8.1 23 13.1 ESE 17 24 9 13 - - 0.0
21/12:00pm 30.9 28.3 9.2 26 12.2 ENE 13 17 7 9 - - 0.0
21/11:30am 30.3 27.2 8.7 26 12.0 ENE 15 20 8 11 - - 0.0
21/11:00am 29.8 26.7 8.8 27 11.6 E 15 26 8 14 - - 0.0
21/10:30am 28.8 25.9 9.5 30 10.8 ESE 15 20 8 11 - - 0.0
21/10:00am 27.2 25.1 11.3 37 9.1 SE 13 19 7 10 - - 0.0
21/09:30am 26.3 24.2 11.2 38 8.6 SE 13 17 7 9 - - 0.0
21/09:00am 22.8 24.1 14.1 58 5.1 CALM 0 0 0 0 - - 0.0
21/08:30am 19.1 20.5 14.4 74 2.7 CALM 0 0 0 0 - - 0.0
21/08:00am 15.7 16.0 13.4 86 1.3 SSW 4 7 2 4 - - 0.0
21/07:30am 14.9 15.7 12.4 85 1.4 CALM 0 0 0 0 - - 0.0
21/07:00am 16.2 17.0 12.7 80 1.9 CALM 0 6 0 3 - - 0.0
21/06:30am 15.3 15.0 12.8 85 1.4 S 6 9 3 5 - - 0.0
21/06:00am 16.2 15.5 13.1 82 1.7 SSW 9 13 5 7 - - 0.0
21/05:30am 16.9 16.4 13.8 82 1.8 SSW 9 13 5 7 - - 0.0
21/05:00am 15.3 15.3 13.5 89 1.0 S 6 9 3 5 - - 0.0
21/04:30am 15.4 15.3 13.8 90 0.9 S 7 13 4 7 - - 0.0
21/04:00am 15.5 16.3 13.7 89 1.0 SSW 2 7 1 4 - - 0.0
21/03:30am 15.5 16.7 13.7 89 1.0 CALM 0 0 0 0 - - 0.0
21/03:00am 15.4 16.2 13.6 89 1.0 SSW 2 6 1 3 - - 0.0
21/02:30am 15.7 16.8 13.5 87 1.2 CALM 0 0 0 0 - - 0.0
21/02:00am 16.2 17.1 14.0 87 1.2 SSE 2 6 1 3 - - 0.0
21/01:30am 16.7 17.8 13.6 82 1.7 CALM 0 0 0 0 - - 0.0
21/01:00am 18.2 18.7 15.1 82 1.8 ENE 6 11 3 6 - - 0.0
21/12:30am 17.1 18.3 13.8 81 1.9 CALM 0 0 0 0 - - 0.0
21/12:00am 17.3 18.4 13.6 79 2.1 CALM 0 0 0 0 - - 0.0
 
Date/Time
CST
Temp
°C
App
Temp
°C
Dew
Point
°C
Rel
Hum
%
Delta-T
°C
Wind Press
QNH
hPa
Press
MSL
hPa
Rain since
9am
mm
Dir  Spd
km/h
Gust
km/h
Spd
kts
Gust
kts
20/11:30pm 17.6 18.7 13.5 77 2.3 CALM 0 0 0 0 - - 0.0
20/11:00pm 18.1 19.4 14.0 77 2.3 CALM 0 0 0 0 - - 0.0
20/10:30pm 18.4 19.8 14.5 78 2.3 CALM 0 0 0 0 - - 0.0
20/10:00pm 19.0 20.5 14.7 76 2.5 CALM 0 0 0 0 - - 0.0
20/09:30pm 20.1 21.7 14.9 72 3.1 CALM 0 0 0 0 - - 0.0
20/09:00pm 20.9 22.3 14.3 66 3.8 CALM 0 0 0 0 - - 0.0
20/08:30pm 22.3 23.7 14.4 61 4.6 CALM 0 0 0 0 - - 0.0
20/08:00pm 22.8 23.6 13.6 56 5.3 SW 2 6 1 3 - - 0.0
20/07:30pm 23.5 23.0 12.8 51 6.2 SW 7 9 4 5 - - 0.0
20/07:00pm 24.8 24.0 11.7 44 7.4 WSW 7 11 4 6 - - 0.0

Other Formats:

Comma delimited format used in spreadsheet applications
http://www.bom.gov.au/fwo/IDD60801/IDD60801.95111.axf

JavaScript Object Notation format (JSON) in row-major order
http://www.bom.gov.au/fwo/IDD60801/IDD60801.95111.json